sensor_id;sensor_type;location;lat;lon;timestamp;temperature;humidity
17887;DHT22;9069;52.044;7.472;2023-01-16T00:01:44;9.60;95.30
17887;DHT22;9069;52.044;7.472;2023-01-16T00:04:11;9.60;95.30
17887;DHT22;9069;52.044;7.472;2023-01-16T00:06:37;9.60;95.40
17887;DHT22;9069;52.044;7.472;2023-01-16T00:09:04;9.60;95.40
17887;DHT22;9069;52.044;7.472;2023-01-16T00:11:31;9.50;95.40
17887;DHT22;9069;52.044;7.472;2023-01-16T00:13:58;9.50;95.50
17887;DHT22;9069;52.044;7.472;2023-01-16T00:16:28;9.50;95.50
17887;DHT22;9069;52.044;7.472;2023-01-16T00:18:55;9.50;95.50
17887;DHT22;9069;52.044;7.472;2023-01-16T00:21:22;9.50;95.60
17887;DHT22;9069;52.044;7.472;2023-01-16T00:23:54;9.40;95.60
17887;DHT22;9069;52.044;7.472;2023-01-16T00:26:21;9.40;95.60
17887;DHT22;9069;52.044;7.472;2023-01-16T00:28:48;9.40;95.70
17887;DHT22;9069;52.044;7.472;2023-01-16T00:31:16;9.40;95.80
17887;DHT22;9069;52.044;7.472;2023-01-16T00:33:42;9.40;95.90
17887;DHT22;9069;52.044;7.472;2023-01-16T00:36:10;9.30;96.00
17887;DHT22;9069;52.044;7.472;2023-01-16T00:38:36;9.30;96.10
17887;DHT22;9069;52.044;7.472;2023-01-16T00:41:03;9.30;96.10
17887;DHT22;9069;52.044;7.472;2023-01-16T00:43:31;9.30;96.20
17887;DHT22;9069;52.044;7.472;2023-01-16T00:45:58;9.30;96.20
17887;DHT22;9069;52.044;7.472;2023-01-16T00:48:25;9.30;96.30
17887;DHT22;9069;52.044;7.472;2023-01-16T00:50:52;9.30;96.30
17887;DHT22;9069;52.044;7.472;2023-01-16T00:53:18;9.30;96.40
17887;DHT22;9069;52.044;7.472;2023-01-16T00:55:45;9.20;96.40
17887;DHT22;9069;52.044;7.472;2023-01-16T00:58:12;9.30;96.50
17887;DHT22;9069;52.044;7.472;2023-01-16T01:00:39;9.20;96.50
17887;DHT22;9069;52.044;7.472;2023-01-16T01:03:06;9.20;96.60
17887;DHT22;9069;52.044;7.472;2023-01-16T01:05:37;9.20;96.60
17887;DHT22;9069;52.044;7.472;2023-01-16T01:08:05;9.20;96.60
17887;DHT22;9069;52.044;7.472;2023-01-16T01:10:32;9.20;96.50
17887;DHT22;9069;52.044;7.472;2023-01-16T01:12:59;9.20;96.50
17887;DHT22;9069;52.044;7.472;2023-01-16T01:15:25;9.10;96.50
17887;DHT22;9069;52.044;7.472;2023-01-16T01:17:52;9.10;96.50
17887;DHT22;9069;52.044;7.472;2023-01-16T01:20:19;9.10;96.50
17887;DHT22;9069;52.044;7.472;2023-01-16T01:22:46;9.10;96.50
17887;DHT22;9069;52.044;7.472;2023-01-16T01:25:13;9.10;96.50
17887;DHT22;9069;52.044;7.472;2023-01-16T01:27:40;9.00;96.60
17887;DHT22;9069;52.044;7.472;2023-01-16T01:30:07;9.00;96.60
17887;DHT22;9069;52.044;7.472;2023-01-16T01:32:34;9.00;96.60
17887;DHT22;9069;52.044;7.472;2023-01-16T01:35:05;9.00;96.60
17887;DHT22;9069;52.044;7.472;2023-01-16T01:37:32;9.00;96.70
17887;DHT22;9069;52.044;7.472;2023-01-16T01:39:59;8.90;96.70
17887;DHT22;9069;52.044;7.472;2023-01-16T01:42:26;8.90;96.80
17887;DHT22;9069;52.044;7.472;2023-01-16T01:45:40;8.80;96.80
17887;DHT22;9069;52.044;7.472;2023-01-16T01:48:16;8.90;97.20
17887;DHT22;9069;52.044;7.472;2023-01-16T01:53:33;8.80;97.20
17887;DHT22;9069;52.044;7.472;2023-01-16T01:56:07;8.80;97.30
17887;DHT22;9069;52.044;7.472;2023-01-16T01:58:35;8.80;97.40
17887;DHT22;9069;52.044;7.472;2023-01-16T02:01:12;8.80;97.40
17887;DHT22;9069;52.044;7.472;2023-01-16T02:03:42;8.80;97.50
17887;DHT22;9069;52.044;7.472;2023-01-16T02:06:20;8.80;97.60
17887;DHT22;9069;52.044;7.472;2023-01-16T02:08:50;8.80;97.80
17887;DHT22;9069;52.044;7.472;2023-01-16T02:11:25;8.80;97.70
17887;DHT22;9069;52.044;7.472;2023-01-16T02:14:04;8.80;97.70
17887;DHT22;9069;52.044;7.472;2023-01-16T02:16:31;8.80;97.60
17887;DHT22;9069;52.044;7.472;2023-01-16T02:25:26;8.80;97.60
17887;DHT22;9069;52.044;7.472;2023-01-16T02:39:38;8.70;97.70
17887;DHT22;9069;52.044;7.472;2023-01-16T02:45:29;8.60;97.80
17887;DHT22;9069;52.044;7.472;2023-01-16T02:48:10;8.60;98.00
17887;DHT22;9069;52.044;7.472;2023-01-16T02:54:15;8.60;98.00
17887;DHT22;9069;52.044;7.472;2023-01-16T02:56:21;8.60;97.90
17887;DHT22;9069;52.044;7.472;2023-01-16T02:58:48;8.60;97.90
17887;DHT22;9069;52.044;7.472;2023-01-16T03:01:18;8.60;97.90
17887;DHT22;9069;52.044;7.472;2023-01-16T03:06:41;8.60;98.10
17887;DHT22;9069;52.044;7.472;2023-01-16T03:12:11;8.50;98.00
17887;DHT22;9069;52.044;7.472;2023-01-16T03:14:55;8.50;97.90
17887;DHT22;9069;52.044;7.472;2023-01-16T03:17:33;8.60;97.90
17887;DHT22;9069;52.044;7.472;2023-01-16T03:28:13;8.50;97.90
17887;DHT22;9069;52.044;7.472;2023-01-16T03:33:36;8.50;97.90
17887;DHT22;9069;52.044;7.472;2023-01-16T03:36:29;8.50;97.90
17887;DHT22;9069;52.044;7.472;2023-01-16T03:38:57;8.50;97.90
17887;DHT22;9069;52.044;7.472;2023-01-16T03:41:26;8.40;97.80
17887;DHT22;9069;52.044;7.472;2023-01-16T03:43:59;8.40;97.80
17887;DHT22;9069;52.044;7.472;2023-01-16T03:46:34;8.40;97.80
17887;DHT22;9069;52.044;7.472;2023-01-16T03:49:11;8.40;97.80
17887;DHT22;9069;52.044;7.472;2023-01-16T03:51:48;8.40;97.80
17887;DHT22;9069;52.044;7.472;2023-01-16T03:56:49;8.40;97.80
17887;DHT22;9069;52.044;7.472;2023-01-16T03:59:16;8.40;97.80
17887;DHT22;9069;52.044;7.472;2023-01-16T04:01:58;8.40;98.00
17887;DHT22;9069;52.044;7.472;2023-01-16T04:07:30;8.30;97.70
17887;DHT22;9069;52.044;7.472;2023-01-16T04:10:07;8.30;97.60
17887;DHT22;9069;52.044;7.472;2023-01-16T04:12:40;8.30;97.70
17887;DHT22;9069;52.044;7.472;2023-01-16T04:15:09;8.30;97.70
17887;DHT22;9069;52.044;7.472;2023-01-16T04:17:38;8.30;97.70
17887;DHT22;9069;52.044;7.472;2023-01-16T04:20:07;8.30;97.80
17887;DHT22;9069;52.044;7.472;2023-01-16T04:22:34;8.30;97.80
17887;DHT22;9069;52.044;7.472;2023-01-16T04:25:05;8.30;97.80
17887;DHT22;9069;52.044;7.472;2023-01-16T04:27:32;8.30;97.90
17887;DHT22;9069;52.044;7.472;2023-01-16T04:29:58;8.30;97.90
17887;DHT22;9069;52.044;7.472;2023-01-16T04:32:25;8.30;97.90
17887;DHT22;9069;52.044;7.472;2023-01-16T04:34:54;8.30;97.90
17887;DHT22;9069;52.044;7.472;2023-01-16T04:37:21;8.30;97.90
17887;DHT22;9069;52.044;7.472;2023-01-16T04:39:48;8.30;97.90
17887;DHT22;9069;52.044;7.472;2023-01-16T04:42:16;8.40;97.90
17887;DHT22;9069;52.044;7.472;2023-01-16T04:44:42;8.40;97.90
17887;DHT22;9069;52.044;7.472;2023-01-16T04:47:09;8.40;97.80
17887;DHT22;9069;52.044;7.472;2023-01-16T04:49:36;8.30;97.70
17887;DHT22;9069;52.044;7.472;2023-01-16T04:52:03;8.30;97.70
17887;DHT22;9069;52.044;7.472;2023-01-16T04:54:30;8.30;97.70
17887;DHT22;9069;52.044;7.472;2023-01-16T04:56:57;8.30;97.70
17887;DHT22;9069;52.044;7.472;2023-01-16T04:59:23;8.30;97.60
17887;DHT22;9069;52.044;7.472;2023-01-16T05:01:50;8.30;97.60
17887;DHT22;9069;52.044;7.472;2023-01-16T05:04:17;8.30;97.60
17887;DHT22;9069;52.044;7.472;2023-01-16T05:06:44;8.20;97.60
17887;DHT22;9069;52.044;7.472;2023-01-16T05:09:11;8.20;97.60
17887;DHT22;9069;52.044;7.472;2023-01-16T05:11:38;8.20;97.60
17887;DHT22;9069;52.044;7.472;2023-01-16T05:14:05;8.10;97.60
17887;DHT22;9069;52.044;7.472;2023-01-16T05:16:35;8.10;97.60
17887;DHT22;9069;52.044;7.472;2023-01-16T05:19:02;8.10;97.70
17887;DHT22;9069;52.044;7.472;2023-01-16T05:21:29;8.10;97.70
17887;DHT22;9069;52.044;7.472;2023-01-16T05:23:56;8.00;97.70
17887;DHT22;9069;52.044;7.472;2023-01-16T05:26:24;8.00;97.70
17887;DHT22;9069;52.044;7.472;2023-01-16T05:28:51;8.00;97.80
17887;DHT22;9069;52.044;7.472;2023-01-16T05:31:18;7.90;97.70
17887;DHT22;9069;52.044;7.472;2023-01-16T05:33:45;7.90;97.80
17887;DHT22;9069;52.044;7.472;2023-01-16T05:36:11;7.90;97.80
17887;DHT22;9069;52.044;7.472;2023-01-16T05:38:38;7.90;97.80
17887;DHT22;9069;52.044;7.472;2023-01-16T05:41:05;7.80;97.80
17887;DHT22;9069;52.044;7.472;2023-01-16T05:43:31;7.80;97.80
17887;DHT22;9069;52.044;7.472;2023-01-16T05:45:58;7.80;97.90
17887;DHT22;9069;52.044;7.472;2023-01-16T05:48:25;7.70;97.90
17887;DHT22;9069;52.044;7.472;2023-01-16T05:50:52;7.70;98.00
17887;DHT22;9069;52.044;7.472;2023-01-16T05:53:19;7.70;98.00
17887;DHT22;9069;52.044;7.472;2023-01-16T05:55:46;7.70;98.10
17887;DHT22;9069;52.044;7.472;2023-01-16T05:58:15;7.70;98.10
17887;DHT22;9069;52.044;7.472;2023-01-16T06:00:42;7.70;98.20
17887;DHT22;9069;52.044;7.472;2023-01-16T06:03:09;7.60;98.20
17887;DHT22;9069;52.044;7.472;2023-01-16T06:05:35;7.60;98.20
17887;DHT22;9069;52.044;7.472;2023-01-16T06:08:02;7.60;98.20
17887;DHT22;9069;52.044;7.472;2023-01-16T06:10:29;7.60;98.20
17887;DHT22;9069;52.044;7.472;2023-01-16T06:12:56;7.60;98.20
17887;DHT22;9069;52.044;7.472;2023-01-16T06:15:23;7.60;98.20
17887;DHT22;9069;52.044;7.472;2023-01-16T06:17:50;7.60;98.20
17887;DHT22;9069;52.044;7.472;2023-01-16T06:20:19;7.60;98.30
17887;DHT22;9069;52.044;7.472;2023-01-16T06:22:45;7.50;98.20
17887;DHT22;9069;52.044;7.472;2023-01-16T06:25:12;7.50;98.20
17887;DHT22;9069;52.044;7.472;2023-01-16T06:27:39;7.50;98.30
17887;DHT22;9069;52.044;7.472;2023-01-16T06:30:07;7.50;98.30
17887;DHT22;9069;52.044;7.472;2023-01-16T06:32:34;7.40;98.40
17887;DHT22;9069;52.044;7.472;2023-01-16T06:35:00;7.40;98.40
17887;DHT22;9069;52.044;7.472;2023-01-16T06:37:27;7.40;98.50
17887;DHT22;9069;52.044;7.472;2023-01-16T06:39:54;7.40;98.50
17887;DHT22;9069;52.044;7.472;2023-01-16T06:42:23;7.40;98.60
17887;DHT22;9069;52.044;7.472;2023-01-16T06:44:51;7.30;98.60
17887;DHT22;9069;52.044;7.472;2023-01-16T06:47:17;7.30;98.70
17887;DHT22;9069;52.044;7.472;2023-01-16T06:49:44;7.30;98.70
17887;DHT22;9069;52.044;7.472;2023-01-16T06:52:10;7.30;98.80
17887;DHT22;9069;52.044;7.472;2023-01-16T06:54:37;7.30;98.90
17887;DHT22;9069;52.044;7.472;2023-01-16T06:57:04;7.30;98.90
17887;DHT22;9069;52.044;7.472;2023-01-16T06:59:30;7.30;99.00
17887;DHT22;9069;52.044;7.472;2023-01-16T07:01:57;7.30;99.00
17887;DHT22;9069;52.044;7.472;2023-01-16T07:04:24;7.30;99.10
17887;DHT22;9069;52.044;7.472;2023-01-16T07:06:51;7.30;99.10
17887;DHT22;9069;52.044;7.472;2023-01-16T07:09:18;7.30;99.10
17887;DHT22;9069;52.044;7.472;2023-01-16T07:11:44;7.30;99.10
17887;DHT22;9069;52.044;7.472;2023-01-16T07:14:11;7.30;99.10
17887;DHT22;9069;52.044;7.472;2023-01-16T07:16:56;7.30;99.10
17887;DHT22;9069;52.044;7.472;2023-01-16T07:19:41;7.30;99.10
17887;DHT22;9069;52.044;7.472;2023-01-16T07:22:27;7.30;99.10
17887;DHT22;9069;52.044;7.472;2023-01-16T07:25:15;7.30;99.10
17887;DHT22;9069;52.044;7.472;2023-01-16T07:27:43;7.30;99.20
17887;DHT22;9069;52.044;7.472;2023-01-16T07:30:10;7.30;99.10
17887;DHT22;9069;52.044;7.472;2023-01-16T07:32:38;7.30;99.50
17887;DHT22;9069;52.044;7.472;2023-01-16T07:35:05;7.30;99.20
17887;DHT22;9069;52.044;7.472;2023-01-16T07:37:33;7.30;99.20
17887;DHT22;9069;52.044;7.472;2023-01-16T07:40:00;7.30;99.10
17887;DHT22;9069;52.044;7.472;2023-01-16T07:42:27;7.30;99.20
17887;DHT22;9069;52.044;7.472;2023-01-16T07:44:53;7.30;99.20
17887;DHT22;9069;52.044;7.472;2023-01-16T07:47:20;7.30;99.10
17887;DHT22;9069;52.044;7.472;2023-01-16T07:49:47;7.30;99.20
17887;DHT22;9069;52.044;7.472;2023-01-16T07:52:14;7.30;99.20
17887;DHT22;9069;52.044;7.472;2023-01-16T07:54:40;7.30;99.20
17887;DHT22;9069;52.044;7.472;2023-01-16T07:57:07;7.30;99.20
17887;DHT22;9069;52.044;7.472;2023-01-16T07:59:34;7.30;99.20
17887;DHT22;9069;52.044;7.472;2023-01-16T08:02:01;7.30;99.20
17887;DHT22;9069;52.044;7.472;2023-01-16T08:04:28;7.30;99.20
17887;DHT22;9069;52.044;7.472;2023-01-16T08:06:58;7.30;99.20
17887;DHT22;9069;52.044;7.472;2023-01-16T08:09:24;7.40;99.20
17887;DHT22;9069;52.044;7.472;2023-01-16T08:11:51;7.40;99.20
17887;DHT22;9069;52.044;7.472;2023-01-16T08:14:18;7.40;99.20
17887;DHT22;9069;52.044;7.472;2023-01-16T08:16:44;7.40;99.20
17887;DHT22;9069;52.044;7.472;2023-01-16T08:19:11;7.50;99.30
17887;DHT22;9069;52.044;7.472;2023-01-16T08:21:38;7.50;99.30
17887;DHT22;9069;52.044;7.472;2023-01-16T08:24:05;7.50;99.30
17887;DHT22;9069;52.044;7.472;2023-01-16T08:26:32;7.50;99.30
17887;DHT22;9069;52.044;7.472;2023-01-16T08:28:59;7.50;99.20
17887;DHT22;9069;52.044;7.472;2023-01-16T08:31:27;7.50;99.20
17887;DHT22;9069;52.044;7.472;2023-01-16T08:33:54;7.60;99.20
17887;DHT22;9069;52.044;7.472;2023-01-16T08:36:21;7.60;99.20
17887;DHT22;9069;52.044;7.472;2023-01-16T08:38:48;7.60;99.20
17887;DHT22;9069;52.044;7.472;2023-01-16T08:41:16;7.60;99.30
17887;DHT22;9069;52.044;7.472;2023-01-16T08:44:03;7.60;99.30
17887;DHT22;9069;52.044;7.472;2023-01-16T08:46:58;7.70;99.30
17887;DHT22;9069;52.044;7.472;2023-01-16T08:49:45;7.60;99.40
17887;DHT22;9069;52.044;7.472;2023-01-16T08:52:30;7.60;99.30
17887;DHT22;9069;52.044;7.472;2023-01-16T08:54:58;7.70;99.40
17887;DHT22;9069;52.044;7.472;2023-01-16T08:57:26;7.60;99.40
17887;DHT22;9069;52.044;7.472;2023-01-16T08:59:55;7.60;99.40
17887;DHT22;9069;52.044;7.472;2023-01-16T09:02:23;7.70;99.50
17887;DHT22;9069;52.044;7.472;2023-01-16T09:04:50;7.60;99.50
17887;DHT22;9069;52.044;7.472;2023-01-16T09:07:17;7.60;99.50
17887;DHT22;9069;52.044;7.472;2023-01-16T09:09:44;7.60;99.60
17887;DHT22;9069;52.044;7.472;2023-01-16T09:12:11;7.60;99.60
17887;DHT22;9069;52.044;7.472;2023-01-16T09:14:58;7.60;99.70
17887;DHT22;9069;52.044;7.472;2023-01-16T09:17:26;7.60;99.70
17887;DHT22;9069;52.044;7.472;2023-01-16T09:19:52;7.60;99.70
17887;DHT22;9069;52.044;7.472;2023-01-16T09:22:19;7.60;99.70
17887;DHT22;9069;52.044;7.472;2023-01-16T09:24:46;7.60;99.80
17887;DHT22;9069;52.044;7.472;2023-01-16T09:27:13;7.60;99.90
17887;DHT22;9069;52.044;7.472;2023-01-16T09:29:40;7.60;99.90
17887;DHT22;9069;52.044;7.472;2023-01-16T09:32:07;7.60;99.90
17887;DHT22;9069;52.044;7.472;2023-01-16T09:34:36;7.60;99.90
17887;DHT22;9069;52.044;7.472;2023-01-16T09:37:06;7.60;99.90
17887;DHT22;9069;52.044;7.472;2023-01-16T09:39:34;7.60;99.90
17887;DHT22;9069;52.044;7.472;2023-01-16T09:45:15;7.60;99.90
17887;DHT22;9069;52.044;7.472;2023-01-16T09:47:46;7.60;99.90
17887;DHT22;9069;52.044;7.472;2023-01-16T09:50:24;7.60;99.90
17887;DHT22;9069;52.044;7.472;2023-01-16T09:52:52;7.60;99.90
17887;DHT22;9069;52.044;7.472;2023-01-16T09:55:46;7.50;99.90
17887;DHT22;9069;52.044;7.472;2023-01-16T09:58:39;7.50;99.90
17887;DHT22;9069;52.044;7.472;2023-01-16T10:01:36;7.50;99.90
17887;DHT22;9069;52.044;7.472;2023-01-16T10:04:22;7.50;99.90
17887;DHT22;9069;52.044;7.472;2023-01-16T10:30:37;7.50;99.90
17887;DHT22;9069;52.044;7.472;2023-01-16T10:36:02;7.60;99.90
17887;DHT22;9069;52.044;7.472;2023-01-16T10:38:44;7.50;99.90
17887;DHT22;9069;52.044;7.472;2023-01-16T10:44:54;7.60;99.90
17887;DHT22;9069;52.044;7.472;2023-01-16T10:47:27;7.60;99.90
17887;DHT22;9069;52.044;7.472;2023-01-16T10:50:14;7.60;99.90
17887;DHT22;9069;52.044;7.472;2023-01-16T10:52:48;7.60;99.90
17887;DHT22;9069;52.044;7.472;2023-01-16T10:55:15;7.60;99.90
17887;DHT22;9069;52.044;7.472;2023-01-16T10:57:50;7.60;99.90
17887;DHT22;9069;52.044;7.472;2023-01-16T11:00:31;7.70;99.90
17887;DHT22;9069;52.044;7.472;2023-01-16T11:03:01;7.70;99.90
17887;DHT22;9069;52.044;7.472;2023-01-16T11:05:36;7.70;99.90
17887;DHT22;9069;52.044;7.472;2023-01-16T11:08:20;7.70;99.90
17887;DHT22;9069;52.044;7.472;2023-01-16T11:10:50;7.80;99.90
17887;DHT22;9069;52.044;7.472;2023-01-16T11:13:18;7.80;99.90
17887;DHT22;9069;52.044;7.472;2023-01-16T11:16:21;7.80;99.90
17887;DHT22;9069;52.044;7.472;2023-01-16T11:19:23;7.80;99.90
17887;DHT22;9069;52.044;7.472;2023-01-16T11:22:00;7.80;99.90
17887;DHT22;9069;52.044;7.472;2023-01-16T11:24:33;7.90;99.90
17887;DHT22;9069;52.044;7.472;2023-01-16T11:27:01;7.90;99.90
17887;DHT22;9069;52.044;7.472;2023-01-16T11:29:36;7.90;99.90
17887;DHT22;9069;52.044;7.472;2023-01-16T11:32:11;7.90;99.90
17887;DHT22;9069;52.044;7.472;2023-01-16T11:34:44;7.90;99.90
17887;DHT22;9069;52.044;7.472;2023-01-16T11:37:13;7.90;99.90
17887;DHT22;9069;52.044;7.472;2023-01-16T11:39:47;7.90;99.90
17887;DHT22;9069;52.044;7.472;2023-01-16T11:42:14;7.90;99.90
17887;DHT22;9069;52.044;7.472;2023-01-16T11:45:11;8.00;99.90
17887;DHT22;9069;52.044;7.472;2023-01-16T11:48:00;8.00;99.90
17887;DHT22;9069;52.044;7.472;2023-01-16T11:50:33;8.00;99.90
17887;DHT22;9069;52.044;7.472;2023-01-16T11:53:00;8.00;99.90
17887;DHT22;9069;52.044;7.472;2023-01-16T11:58:37;8.00;99.90
17887;DHT22;9069;52.044;7.472;2023-01-16T12:15:25;8.00;99.90
17887;DHT22;9069;52.044;7.472;2023-01-16T12:20:35;8.00;99.90
17887;DHT22;9069;52.044;7.472;2023-01-16T12:26:12;8.00;99.90
17887;DHT22;9069;52.044;7.472;2023-01-16T12:29:15;8.10;99.90
17887;DHT22;9069;52.044;7.472;2023-01-16T12:34:57;8.10;99.90
17887;DHT22;9069;52.044;7.472;2023-01-16T12:40:46;8.10;99.90
17887;DHT22;9069;52.044;7.472;2023-01-16T12:43:36;8.20;99.90
17887;DHT22;9069;52.044;7.472;2023-01-16T12:46:17;8.20;99.90
17887;DHT22;9069;52.044;7.472;2023-01-16T12:51:27;8.20;99.90
17887;DHT22;9069;52.044;7.472;2023-01-16T12:56:37;8.20;99.90
17887;DHT22;9069;52.044;7.472;2023-01-16T12:59:27;8.20;99.90
17887;DHT22;9069;52.044;7.472;2023-01-16T13:02:01;8.30;99.90
17887;DHT22;9069;52.044;7.472;2023-01-16T13:04:39;8.30;99.90
17887;DHT22;9069;52.044;7.472;2023-01-16T13:07:14;8.30;99.90
17887;DHT22;9069;52.044;7.472;2023-01-16T13:09:43;8.30;99.90
17887;DHT22;9069;52.044;7.472;2023-01-16T13:12:26;8.30;99.90
17887;DHT22;9069;52.044;7.472;2023-01-16T13:15:21;8.30;99.90
17887;DHT22;9069;52.044;7.472;2023-01-16T13:17:55;8.40;99.90
17887;DHT22;9069;52.044;7.472;2023-01-16T13:20:24;8.40;99.90
17887;DHT22;9069;52.044;7.472;2023-01-16T13:23:19;8.40;99.90
17887;DHT22;9069;52.044;7.472;2023-01-16T13:25:53;8.40;99.90
17887;DHT22;9069;52.044;7.472;2023-01-16T13:28:39;8.40;99.90
17887;DHT22;9069;52.044;7.472;2023-01-16T13:31:27;8.40;99.90
17887;DHT22;9069;52.044;7.472;2023-01-16T13:34:10;8.40;99.90
17887;DHT22;9069;52.044;7.472;2023-01-16T13:39:36;8.40;99.90
17887;DHT22;9069;52.044;7.472;2023-01-16T13:42:08;8.40;99.90
17887;DHT22;9069;52.044;7.472;2023-01-16T13:44:42;8.40;99.90
17887;DHT22;9069;52.044;7.472;2023-01-16T13:47:31;8.40;99.90
17887;DHT22;9069;52.044;7.472;2023-01-16T13:50:17;8.40;99.90
17887;DHT22;9069;52.044;7.472;2023-01-16T13:52:45;8.40;99.90
17887;DHT22;9069;52.044;7.472;2023-01-16T13:55:36;8.40;99.90
17887;DHT22;9069;52.044;7.472;2023-01-16T13:58:21;8.40;99.90
17887;DHT22;9069;52.044;7.472;2023-01-16T14:00:58;8.40;99.90
17887;DHT22;9069;52.044;7.472;2023-01-16T14:03:30;8.40;99.90
17887;DHT22;9069;52.044;7.472;2023-01-16T14:09:06;8.40;99.90
17887;DHT22;9069;52.044;7.472;2023-01-16T14:17:28;8.40;99.90
17887;DHT22;9069;52.044;7.472;2023-01-16T14:20:01;8.40;99.90
17887;DHT22;9069;52.044;7.472;2023-01-16T14:22:41;8.40;99.90
17887;DHT22;9069;52.044;7.472;2023-01-16T14:25:27;8.40;99.90
17887;DHT22;9069;52.044;7.472;2023-01-16T14:27:55;8.40;99.90
17887;DHT22;9069;52.044;7.472;2023-01-16T14:30:30;8.40;99.90
17887;DHT22;9069;52.044;7.472;2023-01-16T14:32:59;8.40;99.90
17887;DHT22;9069;52.044;7.472;2023-01-16T14:35:40;8.50;99.90
17887;DHT22;9069;52.044;7.472;2023-01-16T14:38:19;8.50;99.90
17887;DHT22;9069;52.044;7.472;2023-01-16T14:40:53;8.50;99.90
17887;DHT22;9069;52.044;7.472;2023-01-16T14:44:28;8.50;99.90
17887;DHT22;9069;52.044;7.472;2023-01-16T14:46:52;8.50;99.90
17887;DHT22;9069;52.044;7.472;2023-01-16T14:52:57;8.50;99.90
17887;DHT22;9069;52.044;7.472;2023-01-16T14:58:52;8.50;99.90
17887;DHT22;9069;52.044;7.472;2023-01-16T15:01:26;8.50;99.90
17887;DHT22;9069;52.044;7.472;2023-01-16T15:04:14;8.50;99.90
17887;DHT22;9069;52.044;7.472;2023-01-16T15:06:48;8.50;99.90
17887;DHT22;9069;52.044;7.472;2023-01-16T15:09:17;8.50;99.90
17887;DHT22;9069;52.044;7.472;2023-01-16T15:14:21;8.40;99.90
17887;DHT22;9069;52.044;7.472;2023-01-16T15:16:59;8.40;99.90
17887;DHT22;9069;52.044;7.472;2023-01-16T15:22:52;8.40;99.90
17887;DHT22;9069;52.044;7.472;2023-01-16T15:31:15;8.40;99.90
17887;DHT22;9069;52.044;7.472;2023-01-16T15:33:43;8.30;99.90
17887;DHT22;9069;52.044;7.472;2023-01-16T15:36:31;8.30;99.90
17887;DHT22;9069;52.044;7.472;2023-01-16T15:39:05;8.30;99.90
17887;DHT22;9069;52.044;7.472;2023-01-16T15:41:42;8.30;99.90
17887;DHT22;9069;52.044;7.472;2023-01-16T15:44:28;8.30;99.90
17887;DHT22;9069;52.044;7.472;2023-01-16T15:52:29;8.20;99.90
17887;DHT22;9069;52.044;7.472;2023-01-16T15:54:57;8.20;99.90
17887;DHT22;9069;52.044;7.472;2023-01-16T15:57:24;8.20;99.90
17887;DHT22;9069;52.044;7.472;2023-01-16T15:59:55;8.20;99.90
17887;DHT22;9069;52.044;7.472;2023-01-16T16:02:25;8.20;99.90
17887;DHT22;9069;52.044;7.472;2023-01-16T16:04:57;8.30;99.90
17887;DHT22;9069;52.044;7.472;2023-01-16T16:07:24;8.20;99.90
17887;DHT22;9069;52.044;7.472;2023-01-16T16:09:57;8.20;99.90
17887;DHT22;9069;52.044;7.472;2023-01-16T16:12:26;8.20;99.90
17887;DHT22;9069;52.044;7.472;2023-01-16T16:15:19;8.10;99.90
17887;DHT22;9069;52.044;7.472;2023-01-16T16:18:16;8.10;99.90
17887;DHT22;9069;52.044;7.472;2023-01-16T16:20:45;8.10;99.90
17887;DHT22;9069;52.044;7.472;2023-01-16T16:25:54;8.10;99.90
17887;DHT22;9069;52.044;7.472;2023-01-16T16:28:36;8.10;99.90
17887;DHT22;9069;52.044;7.472;2023-01-16T16:31:20;8.10;99.90
17887;DHT22;9069;52.044;7.472;2023-01-16T16:34:00;8.00;99.90
17887;DHT22;9069;52.044;7.472;2023-01-16T16:36:34;8.00;99.90
17887;DHT22;9069;52.044;7.472;2023-01-16T16:39:02;8.00;99.90
17887;DHT22;9069;52.044;7.472;2023-01-16T16:44:23;8.00;99.90
17887;DHT22;9069;52.044;7.472;2023-01-16T16:46:51;8.00;99.90
17887;DHT22;9069;52.044;7.472;2023-01-16T16:51:51;8.00;99.90
17887;DHT22;9069;52.044;7.472;2023-01-16T16:54:18;8.00;99.90
17887;DHT22;9069;52.044;7.472;2023-01-16T16:56:54;8.00;99.90
17887;DHT22;9069;52.044;7.472;2023-01-16T16:59:25;8.00;99.90
17887;DHT22;9069;52.044;7.472;2023-01-16T17:01:57;8.00;99.90
17887;DHT22;9069;52.044;7.472;2023-01-16T17:04:30;8.00;99.90
17887;DHT22;9069;52.044;7.472;2023-01-16T17:06:57;8.00;99.90
17887;DHT22;9069;52.044;7.472;2023-01-16T17:09:25;8.00;99.90
17887;DHT22;9069;52.044;7.472;2023-01-16T17:11:57;8.00;99.90
17887;DHT22;9069;52.044;7.472;2023-01-16T17:14:26;8.00;99.90
17887;DHT22;9069;52.044;7.472;2023-01-16T17:16:53;8.00;99.90
17887;DHT22;9069;52.044;7.472;2023-01-16T17:19:28;8.00;99.90
17887;DHT22;9069;52.044;7.472;2023-01-16T17:21:56;8.00;99.90
17887;DHT22;9069;52.044;7.472;2023-01-16T17:24:23;8.00;99.90
17887;DHT22;9069;52.044;7.472;2023-01-16T17:26:49;8.00;99.90
17887;DHT22;9069;52.044;7.472;2023-01-16T17:29:16;8.00;99.90
17887;DHT22;9069;52.044;7.472;2023-01-16T17:31:44;8.00;99.90
17887;DHT22;9069;52.044;7.472;2023-01-16T17:34:15;8.00;99.90
17887;DHT22;9069;52.044;7.472;2023-01-16T17:36:42;8.00;99.90
17887;DHT22;9069;52.044;7.472;2023-01-16T17:39:09;8.00;99.90
17887;DHT22;9069;52.044;7.472;2023-01-16T17:41:38;8.00;99.90
17887;DHT22;9069;52.044;7.472;2023-01-16T17:44:14;8.00;99.90
17887;DHT22;9069;52.044;7.472;2023-01-16T17:47:00;8.00;99.90
17887;DHT22;9069;52.044;7.472;2023-01-16T17:49:27;8.00;99.90
17887;DHT22;9069;52.044;7.472;2023-01-16T17:51:53;8.00;99.90
17887;DHT22;9069;52.044;7.472;2023-01-16T17:54:20;8.00;99.90
17887;DHT22;9069;52.044;7.472;2023-01-16T17:57:06;8.00;99.90
17887;DHT22;9069;52.044;7.472;2023-01-16T17:59:32;8.10;99.90
17887;DHT22;9069;52.044;7.472;2023-01-16T18:01:59;8.10;99.90
17887;DHT22;9069;52.044;7.472;2023-01-16T18:04:26;8.10;99.90
17887;DHT22;9069;52.044;7.472;2023-01-16T18:06:58;8.10;99.90
17887;DHT22;9069;52.044;7.472;2023-01-16T18:09:24;8.10;99.90
17887;DHT22;9069;52.044;7.472;2023-01-16T18:11:52;8.20;99.90
17887;DHT22;9069;52.044;7.472;2023-01-16T18:14:37;8.20;99.90
17887;DHT22;9069;52.044;7.472;2023-01-16T18:17:23;8.20;99.90
17887;DHT22;9069;52.044;7.472;2023-01-16T18:19:54;8.20;99.90
17887;DHT22;9069;52.044;7.472;2023-01-16T18:22:28;8.20;99.90
17887;DHT22;9069;52.044;7.472;2023-01-16T18:24:57;8.20;99.90
17887;DHT22;9069;52.044;7.472;2023-01-16T18:27:24;8.20;99.90
17887;DHT22;9069;52.044;7.472;2023-01-16T18:29:51;8.20;99.90
17887;DHT22;9069;52.044;7.472;2023-01-16T18:32:18;8.20;99.90
17887;DHT22;9069;52.044;7.472;2023-01-16T18:34:59;8.20;99.90
17887;DHT22;9069;52.044;7.472;2023-01-16T18:37:35;8.30;99.90
17887;DHT22;9069;52.044;7.472;2023-01-16T18:40:10;8.30;99.90
17887;DHT22;9069;52.044;7.472;2023-01-16T18:42:56;8.30;99.90
17887;DHT22;9069;52.044;7.472;2023-01-16T18:45:41;8.30;99.90
17887;DHT22;9069;52.044;7.472;2023-01-16T18:48:27;8.30;99.90
17887;DHT22;9069;52.044;7.472;2023-01-16T18:51:15;8.30;99.90
17887;DHT22;9069;52.044;7.472;2023-01-16T18:54:03;8.30;99.90
17887;DHT22;9069;52.044;7.472;2023-01-16T18:56:55;8.30;99.90
17887;DHT22;9069;52.044;7.472;2023-01-16T18:59:40;8.30;99.90
17887;DHT22;9069;52.044;7.472;2023-01-16T19:02:44;8.30;99.90
17887;DHT22;9069;52.044;7.472;2023-01-16T19:05:13;8.30;99.90
17887;DHT22;9069;52.044;7.472;2023-01-16T19:07:43;8.30;99.90
17887;DHT22;9069;52.044;7.472;2023-01-16T19:10:32;8.30;99.90
17887;DHT22;9069;52.044;7.472;2023-01-16T19:13:02;8.30;99.90
17887;DHT22;9069;52.044;7.472;2023-01-16T19:15:30;8.30;99.90
17887;DHT22;9069;52.044;7.472;2023-01-16T19:17:56;8.30;99.90